sensor_id;sensor_type;location;lat;lon;timestamp;pressure;altitude;pressure_sealevel;temperature;humidity
9249;BME280;4660;41.768;26.198;2022-12-13T00:01:26;100075.44;;;7.29;100.00
9249;BME280;4660;41.768;26.198;2022-12-13T00:03:53;100072.47;;;6.92;100.00
9249;BME280;4660;41.768;26.198;2022-12-13T00:06:19;100058.28;;;6.70;100.00
9249;BME280;4660;41.768;26.198;2022-12-13T00:08:44;100080.13;;;6.75;100.00
9249;BME280;4660;41.768;26.198;2022-12-13T00:11:12;100097.81;;;6.67;100.00
9249;BME280;4660;41.768;26.198;2022-12-13T00:13:38;100102.22;;;6.77;100.00
9249;BME280;4660;41.768;26.198;2022-12-13T00:16:07;100081.44;;;6.81;100.00
9249;BME280;4660;41.768;26.198;2022-12-13T00:18:34;100104.56;;;6.71;100.00
9249;BME280;4660;41.768;26.198;2022-12-13T00:21:04;100105.03;;;6.55;100.00
9249;BME280;4660;41.768;26.198;2022-12-13T00:23:30;100118.16;;;6.58;100.00
9249;BME280;4660;41.768;26.198;2022-12-13T00:26:01;100136.88;;;6.58;100.00
9249;BME280;4660;41.768;26.198;2022-12-13T00:28:26;100128.63;;;6.50;100.00
9249;BME280;4660;41.768;26.198;2022-12-13T00:30:56;100144.66;;;6.50;100.00
9249;BME280;4660;41.768;26.198;2022-12-13T00:33:22;100170.16;;;6.54;100.00
9249;BME280;4660;41.768;26.198;2022-12-13T00:35:47;100172.28;;;6.39;100.00
9249;BME280;4660;41.768;26.198;2022-12-13T00:38:13;100173.41;;;6.37;100.00
9249;BME280;4660;41.768;26.198;2022-12-13T00:40:38;100194.66;;;6.27;100.00
9249;BME280;4660;41.768;26.198;2022-12-13T00:43:04;100164.38;;;6.05;100.00
9249;BME280;4660;41.768;26.198;2022-12-13T00:45:29;100189.16;;;6.07;100.00
9249;BME280;4660;41.768;26.198;2022-12-13T00:47:55;100188.63;;;6.25;100.00
9249;BME280;4660;41.768;26.198;2022-12-13T00:50:20;100175.91;;;6.17;100.00
9249;BME280;4660;41.768;26.198;2022-12-13T00:52:46;100176.88;;;6.16;100.00
9249;BME280;4660;41.768;26.198;2022-12-13T00:55:11;100186.38;;;6.09;100.00
9249;BME280;4660;41.768;26.198;2022-12-13T00:57:37;100186.59;;;6.06;100.00
9249;BME280;4660;41.768;26.198;2022-12-13T01:00:04;100182.44;;;6.13;100.00
9249;BME280;4660;41.768;26.198;2022-12-13T01:02:30;100202.25;;;6.11;100.00
9249;BME280;4660;41.768;26.198;2022-12-13T01:04:55;100201.31;;;6.00;100.00
9249;BME280;4660;41.768;26.198;2022-12-13T01:07:21;100232.03;;;5.95;100.00
9249;BME280;4660;41.768;26.198;2022-12-13T01:09:47;100218.91;;;5.92;100.00
9249;BME280;4660;41.768;26.198;2022-12-13T01:12:12;100224.34;;;5.90;100.00
9249;BME280;4660;41.768;26.198;2022-12-13T01:14:39;100234.06;;;5.91;100.00
9249;BME280;4660;41.768;26.198;2022-12-13T01:17:05;100231.75;;;5.98;100.00
9249;BME280;4660;41.768;26.198;2022-12-13T01:19:32;100203.13;;;5.77;100.00
9249;BME280;4660;41.768;26.198;2022-12-13T01:21:59;100228.25;;;5.97;100.00
9249;BME280;4660;41.768;26.198;2022-12-13T01:24:27;100225.34;;;6.00;100.00
9249;BME280;4660;41.768;26.198;2022-12-13T01:26:52;100219.13;;;6.00;100.00
9249;BME280;4660;41.768;26.198;2022-12-13T01:29:19;100217.91;;;6.15;100.00
9249;BME280;4660;41.768;26.198;2022-12-13T01:31:46;100222.00;;;6.30;100.00
9249;BME280;4660;41.768;26.198;2022-12-13T01:34:14;100215.16;;;6.38;100.00
9249;BME280;4660;41.768;26.198;2022-12-13T01:36:41;100204.84;;;6.33;100.00
9249;BME280;4660;41.768;26.198;2022-12-13T01:39:09;100205.91;;;6.42;100.00
9249;BME280;4660;41.768;26.198;2022-12-13T01:41:35;100179.41;;;6.18;100.00
9249;BME280;4660;41.768;26.198;2022-12-13T01:44:03;100205.91;;;6.42;100.00
9249;BME280;4660;41.768;26.198;2022-12-13T01:46:31;100216.72;;;6.40;100.00
9249;BME280;4660;41.768;26.198;2022-12-13T01:49:10;100204.16;;;6.20;100.00
9249;BME280;4660;41.768;26.198;2022-12-13T01:52:00;100207.78;;;6.30;100.00
9249;BME280;4660;41.768;26.198;2022-12-13T01:54:31;100213.00;;;6.31;100.00
9249;BME280;4660;41.768;26.198;2022-12-13T01:56:58;100216.53;;;6.32;100.00
9249;BME280;4660;41.768;26.198;2022-12-13T01:59:25;100225.03;;;6.26;100.00
9249;BME280;4660;41.768;26.198;2022-12-13T02:01:52;100211.47;;;6.18;100.00
9249;BME280;4660;41.768;26.198;2022-12-13T02:04:21;100227.34;;;6.19;100.00
9249;BME280;4660;41.768;26.198;2022-12-13T02:06:51;100218.63;;;6.17;100.00
9249;BME280;4660;41.768;26.198;2022-12-13T02:09:17;100213.50;;;6.25;100.00
9249;BME280;4660;41.768;26.198;2022-12-13T02:11:43;100213.69;;;6.45;100.00
9249;BME280;4660;41.768;26.198;2022-12-13T02:14:09;100201.34;;;6.32;100.00
9249;BME280;4660;41.768;26.198;2022-12-13T02:19:46;100223.69;;;6.63;100.00
9249;BME280;4660;41.768;26.198;2022-12-13T02:30:37;100247.38;;;6.14;100.00
9249;BME280;4660;41.768;26.198;2022-12-13T02:33:14;100244.09;;;6.21;100.00
9249;BME280;4660;41.768;26.198;2022-12-13T02:41:50;100240.53;;;6.43;100.00
9249;BME280;4660;41.768;26.198;2022-12-13T02:46:49;100239.44;;;6.34;100.00
9249;BME280;4660;41.768;26.198;2022-12-13T02:49:18;100247.00;;;6.29;100.00
9249;BME280;4660;41.768;26.198;2022-12-13T02:51:45;100243.09;;;6.33;100.00
9249;BME280;4660;41.768;26.198;2022-12-13T02:54:12;100257.44;;;6.32;100.00
9249;BME280;4660;41.768;26.198;2022-12-13T02:56:37;100253.06;;;6.31;100.00
9249;BME280;4660;41.768;26.198;2022-12-13T02:59:09;100255.75;;;6.31;100.00
9249;BME280;4660;41.768;26.198;2022-12-13T03:04:41;100269.09;;;6.20;100.00
9249;BME280;4660;41.768;26.198;2022-12-13T03:07:38;100265.31;;;6.34;100.00
9249;BME280;4660;41.768;26.198;2022-12-13T03:10:15;100267.13;;;6.33;100.00
9249;BME280;4660;41.768;26.198;2022-12-13T03:12:56;100268.22;;;6.42;100.00
9249;BME280;4660;41.768;26.198;2022-12-13T03:15:59;100278.03;;;6.42;100.00
9249;BME280;4660;41.768;26.198;2022-12-13T03:18:29;100292.78;;;6.36;100.00
9249;BME280;4660;41.768;26.198;2022-12-13T03:21:01;100282.53;;;6.41;100.00
9249;BME280;4660;41.768;26.198;2022-12-13T03:23:27;100273.94;;;6.38;100.00
9249;BME280;4660;41.768;26.198;2022-12-13T03:25:56;100280.50;;;6.33;100.00
9249;BME280;4660;41.768;26.198;2022-12-13T03:28:23;100268.88;;;6.23;100.00
9249;BME280;4660;41.768;26.198;2022-12-13T03:30:49;100288.38;;;6.35;100.00
9249;BME280;4660;41.768;26.198;2022-12-13T03:33:15;100291.16;;;6.45;100.00
9249;BME280;4660;41.768;26.198;2022-12-13T03:35:41;100286.81;;;6.44;100.00
9249;BME280;4660;41.768;26.198;2022-12-13T03:38:08;100292.50;;;6.50;100.00
9249;BME280;4660;41.768;26.198;2022-12-13T03:40:34;100313.13;;;6.59;100.00
9249;BME280;4660;41.768;26.198;2022-12-13T03:43:00;100302.44;;;6.48;100.00
9249;BME280;4660;41.768;26.198;2022-12-13T03:45:26;100311.66;;;6.55;100.00
9249;BME280;4660;41.768;26.198;2022-12-13T03:47:51;100308.63;;;6.60;100.00
9249;BME280;4660;41.768;26.198;2022-12-13T03:50:17;100301.38;;;6.51;100.00
9249;BME280;4660;41.768;26.198;2022-12-13T03:52:43;100301.13;;;6.43;100.00
9249;BME280;4660;41.768;26.198;2022-12-13T03:55:08;100305.16;;;6.37;100.00
9249;BME280;4660;41.768;26.198;2022-12-13T03:57:34;100298.00;;;6.26;100.00
9249;BME280;4660;41.768;26.198;2022-12-13T04:00:00;100298.97;;;6.25;100.00
9249;BME280;4660;41.768;26.198;2022-12-13T04:02:25;100309.31;;;6.19;100.00
9249;BME280;4660;41.768;26.198;2022-12-13T04:04:50;100304.94;;;6.18;100.00
9249;BME280;4660;41.768;26.198;2022-12-13T04:07:16;100319.00;;;6.31;100.00
9249;BME280;4660;41.768;26.198;2022-12-13T04:09:42;100310.59;;;6.35;100.00
9249;BME280;4660;41.768;26.198;2022-12-13T04:12:07;100304.59;;;6.22;100.00
9249;BME280;4660;41.768;26.198;2022-12-13T04:14:51;100323.50;;;6.30;100.00
9249;BME280;4660;41.768;26.198;2022-12-13T04:17:16;100334.78;;;6.34;100.00
9249;BME280;4660;41.768;26.198;2022-12-13T04:19:42;100344.88;;;6.30;100.00
9249;BME280;4660;41.768;26.198;2022-12-13T04:22:07;100335.66;;;6.23;100.00
9249;BME280;4660;41.768;26.198;2022-12-13T04:24:33;100342.22;;;6.30;100.00
9249;BME280;4660;41.768;26.198;2022-12-13T04:27:00;100308.94;;;6.12;100.00
9249;BME280;4660;41.768;26.198;2022-12-13T04:29:25;100356.75;;;6.26;100.00
9249;BME280;4660;41.768;26.198;2022-12-13T04:31:51;100359.44;;;6.26;100.00
9249;BME280;4660;41.768;26.198;2022-12-13T04:34:17;100355.31;;;6.33;100.00
9249;BME280;4660;41.768;26.198;2022-12-13T04:36:42;100359.19;;;6.41;100.00
9249;BME280;4660;41.768;26.198;2022-12-13T04:39:08;100367.19;;;6.41;100.00
9249;BME280;4660;41.768;26.198;2022-12-13T04:41:35;100355.19;;;6.24;100.00
9249;BME280;4660;41.768;26.198;2022-12-13T04:44:02;100357.38;;;6.30;100.00
9249;BME280;4660;41.768;26.198;2022-12-13T04:46:28;100362.69;;;6.41;100.00
9249;BME280;4660;41.768;26.198;2022-12-13T04:48:54;100360.03;;;6.52;100.00
9249;BME280;4660;41.768;26.198;2022-12-13T04:51:19;100375.94;;;6.43;100.00
9249;BME280;4660;41.768;26.198;2022-12-13T04:53:45;100362.97;;;6.38;100.00
9249;BME280;4660;41.768;26.198;2022-12-13T04:56:10;100372.31;;;6.32;100.00
9249;BME280;4660;41.768;26.198;2022-12-13T04:58:36;100374.00;;;6.45;100.00
9249;BME280;4660;41.768;26.198;2022-12-13T05:01:05;100387.09;;;6.48;100.00
9249;BME280;4660;41.768;26.198;2022-12-13T05:03:31;100398.28;;;6.42;100.00
9249;BME280;4660;41.768;26.198;2022-12-13T05:05:56;100376.31;;;6.38;100.00
9249;BME280;4660;41.768;26.198;2022-12-13T05:08:22;100418.09;;;6.50;100.00
9249;BME280;4660;41.768;26.198;2022-12-13T05:10:48;100387.50;;;6.43;100.00
9249;BME280;4660;41.768;26.198;2022-12-13T05:13:13;100387.09;;;6.48;100.00
9249;BME280;4660;41.768;26.198;2022-12-13T05:15:39;100430.34;;;6.53;100.00
9249;BME280;4660;41.768;26.198;2022-12-13T05:18:05;100414.22;;;6.43;100.00
9249;BME280;4660;41.768;26.198;2022-12-13T05:20:34;100425.00;;;6.53;100.00
9249;BME280;4660;41.768;26.198;2022-12-13T05:23:00;100426.47;;;6.34;100.00
9249;BME280;4660;41.768;26.198;2022-12-13T05:25:26;100429.63;;;6.51;100.00
9249;BME280;4660;41.768;26.198;2022-12-13T05:27:52;100436.06;;;6.37;100.00
9249;BME280;4660;41.768;26.198;2022-12-13T05:30:18;100409.84;;;6.31;100.00
9249;BME280;4660;41.768;26.198;2022-12-13T05:32:44;100404.59;;;6.07;100.00
9249;BME280;4660;41.768;26.198;2022-12-13T05:35:13;100444.06;;;6.15;100.00
9249;BME280;4660;41.768;26.198;2022-12-13T05:37:40;100467.47;;;6.11;100.00
9249;BME280;4660;41.768;26.198;2022-12-13T05:40:06;100479.03;;;6.12;100.00
9249;BME280;4660;41.768;26.198;2022-12-13T05:42:32;100480.72;;;6.01;100.00
9249;BME280;4660;41.768;26.198;2022-12-13T05:44:58;100464.63;;;5.90;100.00
9249;BME280;4660;41.768;26.198;2022-12-13T05:47:23;100489.78;;;5.99;100.00
9249;BME280;4660;41.768;26.198;2022-12-13T05:49:49;100495.81;;;5.90;100.00
9249;BME280;4660;41.768;26.198;2022-12-13T05:52:20;100506.66;;;5.99;100.00
9249;BME280;4660;41.768;26.198;2022-12-13T05:54:55;100513.59;;;6.02;100.00
9249;BME280;4660;41.768;26.198;2022-12-13T05:57:21;100509.91;;;5.92;100.00
9249;BME280;4660;41.768;26.198;2022-12-13T05:59:47;100509.34;;;5.75;100.00
9249;BME280;4660;41.768;26.198;2022-12-13T06:02:12;100521.72;;;5.76;100.00
9249;BME280;4660;41.768;26.198;2022-12-13T06:04:38;100507.66;;;5.74;100.00
9249;BME280;4660;41.768;26.198;2022-12-13T06:07:04;100526.13;;;5.89;100.00
9249;BME280;4660;41.768;26.198;2022-12-13T06:09:30;100542.72;;;5.94;100.00
9249;BME280;4660;41.768;26.198;2022-12-13T06:11:55;100549.69;;;6.07;100.00
9249;BME280;4660;41.768;26.198;2022-12-13T06:14:21;100547.47;;;6.01;100.00
9249;BME280;4660;41.768;26.198;2022-12-13T06:16:46;100551.00;;;6.13;100.00
9249;BME280;4660;41.768;26.198;2022-12-13T06:19:12;100552.50;;;6.17;100.00
9249;BME280;4660;41.768;26.198;2022-12-13T06:21:37;100553.00;;;6.33;100.00
9249;BME280;4660;41.768;26.198;2022-12-13T06:24:03;100554.69;;;6.34;100.00
9249;BME280;4660;41.768;26.198;2022-12-13T06:26:30;100571.31;;;6.27;100.00
9249;BME280;4660;41.768;26.198;2022-12-13T06:28:55;100582.44;;;6.10;100.00
9249;BME280;4660;41.768;26.198;2022-12-13T06:31:21;100585.44;;;5.94;100.00
9249;BME280;4660;41.768;26.198;2022-12-13T06:33:46;100569.06;;;5.86;100.00
9249;BME280;4660;41.768;26.198;2022-12-13T06:36:12;100568.44;;;5.95;100.00
9249;BME280;4660;41.768;26.198;2022-12-13T06:38:37;100569.81;;;6.00;100.00
9249;BME280;4660;41.768;26.198;2022-12-13T06:41:14;100576.94;;;6.00;100.00
9249;BME280;4660;41.768;26.198;2022-12-13T06:43:56;100581.47;;;5.87;100.00
9249;BME280;4660;41.768;26.198;2022-12-13T06:46:22;100596.97;;;5.82;100.00
9249;BME280;4660;41.768;26.198;2022-12-13T06:48:47;100570.03;;;5.85;100.00
9249;BME280;4660;41.768;26.198;2022-12-13T06:51:14;100580.56;;;5.99;100.00
9249;BME280;4660;41.768;26.198;2022-12-13T06:53:40;100589.56;;;5.98;100.00
9249;BME280;4660;41.768;26.198;2022-12-13T06:56:09;100578.03;;;5.97;100.00
9249;BME280;4660;41.768;26.198;2022-12-13T06:58:35;100562.72;;;5.75;100.00
9249;BME280;4660;41.768;26.198;2022-12-13T07:01:02;100544.50;;;5.69;100.00
9249;BME280;4660;41.768;26.198;2022-12-13T07:03:28;100565.13;;;5.67;100.00
9249;BME280;4660;41.768;26.198;2022-12-13T07:05:57;100570.56;;;5.66;100.00
9249;BME280;4660;41.768;26.198;2022-12-13T07:08:23;100570.38;;;5.56;100.00
9249;BME280;4660;41.768;26.198;2022-12-13T07:10:51;100572.84;;;5.59;100.00
9249;BME280;4660;41.768;26.198;2022-12-13T07:13:18;100592.16;;;5.87;100.00
9249;BME280;4660;41.768;26.198;2022-12-13T07:15:45;100588.50;;;6.12;100.00
9249;BME280;4660;41.768;26.198;2022-12-13T07:18:11;100592.41;;;6.07;100.00
9249;BME280;4660;41.768;26.198;2022-12-13T07:20:39;100592.63;;;6.04;100.00
9249;BME280;4660;41.768;26.198;2022-12-13T07:23:05;100600.16;;;6.11;100.00
9249;BME280;4660;41.768;26.198;2022-12-13T07:25:31;100615.81;;;6.39;100.00
9249;BME280;4660;41.768;26.198;2022-12-13T07:28:01;100622.97;;;6.39;100.00
9249;BME280;4660;41.768;26.198;2022-12-13T07:30:27;100617.13;;;6.33;100.00
9249;BME280;4660;41.768;26.198;2022-12-13T07:32:53;100605.72;;;6.31;100.00
9249;BME280;4660;41.768;26.198;2022-12-13T07:35:18;100617.28;;;6.43;100.00
9249;BME280;4660;41.768;26.198;2022-12-13T07:37:44;100616.41;;;6.43;100.00
9249;BME280;4660;41.768;26.198;2022-12-13T07:40:11;100618.16;;;6.44;100.00
9249;BME280;4660;41.768;26.198;2022-12-13T07:42:38;100629.03;;;6.41;100.00
9249;BME280;4660;41.768;26.198;2022-12-13T07:45:04;100621.69;;;6.20;100.00
9249;BME280;4660;41.768;26.198;2022-12-13T07:47:30;100638.56;;;6.21;100.00
9249;BME280;4660;41.768;26.198;2022-12-13T07:49:56;100630.94;;;6.27;100.00
9249;BME280;4660;41.768;26.198;2022-12-13T07:52:22;100660.06;;;6.54;100.00
9249;BME280;4660;41.768;26.198;2022-12-13T07:54:48;100631.84;;;6.39;100.00
9249;BME280;4660;41.768;26.198;2022-12-13T07:57:13;100644.16;;;6.53;100.00
9249;BME280;4660;41.768;26.198;2022-12-13T07:59:39;100633.75;;;6.72;100.00
9249;BME280;4660;41.768;26.198;2022-12-13T08:02:07;100653.22;;;6.97;100.00
9249;BME280;4660;41.768;26.198;2022-12-13T08:04:35;100661.59;;;6.92;100.00
9249;BME280;4660;41.768;26.198;2022-12-13T08:07:00;100668.09;;;7.01;100.00
9249;BME280;4660;41.768;26.198;2022-12-13T08:09:27;100656.38;;;6.90;100.00
9249;BME280;4660;41.768;26.198;2022-12-13T08:11:53;100681.69;;;7.20;100.00
9249;BME280;4660;41.768;26.198;2022-12-13T08:14:18;100691.31;;;7.11;100.00
9249;BME280;4660;41.768;26.198;2022-12-13T08:16:44;100707.38;;;7.23;100.00
9249;BME280;4660;41.768;26.198;2022-12-13T08:19:10;100715.00;;;7.05;100.00
9249;BME280;4660;41.768;26.198;2022-12-13T08:21:40;100704.44;;;7.03;100.00
9249;BME280;4660;41.768;26.198;2022-12-13T08:24:06;100701.41;;;7.19;100.00
9249;BME280;4660;41.768;26.198;2022-12-13T08:26:33;100702.13;;;7.21;100.00
9249;BME280;4660;41.768;26.198;2022-12-13T08:28:59;100687.53;;;7.14;100.00
9249;BME280;4660;41.768;26.198;2022-12-13T08:31:25;100685.19;;;6.98;100.00
9249;BME280;4660;41.768;26.198;2022-12-13T08:33:51;100673.88;;;6.83;100.00
9249;BME280;4660;41.768;26.198;2022-12-13T08:36:17;100705.78;;;7.09;100.00
9249;BME280;4660;41.768;26.198;2022-12-13T08:38:43;100711.13;;;7.09;100.00
9249;BME280;4660;41.768;26.198;2022-12-13T08:41:09;100712.31;;;7.05;100.00
9249;BME280;4660;41.768;26.198;2022-12-13T08:43:35;100702.13;;;7.10;100.00
9249;BME280;4660;41.768;26.198;2022-12-13T08:46:02;100667.31;;;6.87;100.00
9249;BME280;4660;41.768;26.198;2022-12-13T08:48:28;100684.34;;;6.86;100.00
9249;BME280;4660;41.768;26.198;2022-12-13T08:51:01;100691.88;;;6.93;100.00
9249;BME280;4660;41.768;26.198;2022-12-13T08:53:27;100686.44;;;7.05;100.00
9249;BME280;4660;41.768;26.198;2022-12-13T08:55:53;100665.25;;;6.91;100.00
9249;BME280;4660;41.768;26.198;2022-12-13T08:58:19;100660.00;;;6.78;100.00
9249;BME280;4660;41.768;26.198;2022-12-13T09:00:44;100672.63;;;6.76;100.00
9249;BME280;4660;41.768;26.198;2022-12-13T09:03:18;100645.91;;;6.76;100.00
9249;BME280;4660;41.768;26.198;2022-12-13T09:05:44;100672.34;;;7.03;100.00
9249;BME280;4660;41.768;26.198;2022-12-13T09:08:10;100682.91;;;7.05;100.00
9249;BME280;4660;41.768;26.198;2022-12-13T09:10:36;100671.56;;;6.90;100.00
9249;BME280;4660;41.768;26.198;2022-12-13T09:13:03;100679.69;;;6.66;100.00
9249;BME280;4660;41.768;26.198;2022-12-13T09:15:30;100661.19;;;6.63;100.00
9249;BME280;4660;41.768;26.198;2022-12-13T09:17:56;100670.22;;;6.84;100.00
9249;BME280;4660;41.768;26.198;2022-12-13T09:20:22;100674.44;;;7.22;100.00
9249;BME280;4660;41.768;26.198;2022-12-13T09:22:48;100664.53;;;6.89;100.00
9249;BME280;4660;41.768;26.198;2022-12-13T09:25:15;100652.00;;;6.89;100.00
9249;BME280;4660;41.768;26.198;2022-12-13T09:27:41;100639.88;;;6.97;100.00
9249;BME280;4660;41.768;26.198;2022-12-13T09:30:08;100635.34;;;6.97;100.00
9249;BME280;4660;41.768;26.198;2022-12-13T09:32:38;100663.56;;;7.12;100.00
9249;BME280;4660;41.768;26.198;2022-12-13T09:35:05;100660.75;;;6.92;100.00
9249;BME280;4660;41.768;26.198;2022-12-13T09:37:31;100661.97;;;6.99;100.00
9249;BME280;4660;41.768;26.198;2022-12-13T09:39:57;100647.88;;;6.97;100.00
9249;BME280;4660;41.768;26.198;2022-12-13T09:42:26;100664.66;;;6.99;100.00
9249;BME280;4660;41.768;26.198;2022-12-13T09:45:02;100639.13;;;6.95;100.00
9249;BME280;4660;41.768;26.198;2022-12-13T09:47:40;100656.06;;;7.17;100.00
9249;BME280;4660;41.768;26.198;2022-12-13T09:50:10;100645.22;;;7.41;100.00
9249;BME280;4660;41.768;26.198;2022-12-13T09:52:44;100621.34;;;7.50;100.00
9249;BME280;4660;41.768;26.198;2022-12-13T09:57:44;100638.34;;;7.82;100.00
9249;BME280;4660;41.768;26.198;2022-12-13T10:00:14;100642.75;;;7.72;100.00
9249;BME280;4660;41.768;26.198;2022-12-13T10:02:53;100645.31;;;7.62;100.00
9249;BME280;4660;41.768;26.198;2022-12-13T10:05:36;100635.69;;;7.71;100.00
9249;BME280;4660;41.768;26.198;2022-12-13T10:08:15;100641.09;;;8.03;100.00
9249;BME280;4660;41.768;26.198;2022-12-13T10:10:45;100628.47;;;7.94;100.00
9249;BME280;4660;41.768;26.198;2022-12-13T10:16:02;100626.72;;;7.93;100.00
9249;BME280;4660;41.768;26.198;2022-12-13T10:18:39;100633.63;;;8.07;100.00
9249;BME280;4660;41.768;26.198;2022-12-13T10:21:28;100612.25;;;7.95;100.00
9249;BME280;4660;41.768;26.198;2022-12-13T10:24:20;100635.94;;;8.11;100.00
9249;BME280;4660;41.768;26.198;2022-12-13T10:26:50;100624.75;;;8.06;100.00
9249;BME280;4660;41.768;26.198;2022-12-13T10:29:21;100610.06;;;8.00;100.00
9249;BME280;4660;41.768;26.198;2022-12-13T10:31:51;100630.63;;;8.32;100.00
9249;BME280;4660;41.768;26.198;2022-12-13T10:34:26;100608.44;;;8.09;100.00
9249;BME280;4660;41.768;26.198;2022-12-13T10:36:52;100624.78;;;8.27;100.00
9249;BME280;4660;41.768;26.198;2022-12-13T10:39:41;100623.88;;;8.17;100.00
9249;BME280;4660;41.768;26.198;2022-12-13T10:42:17;100620.59;;;8.34;100.00
9249;BME280;4660;41.768;26.198;2022-12-13T10:44:45;100596.56;;;8.23;100.00
9249;BME280;4660;41.768;26.198;2022-12-13T10:47:20;100596.41;;;8.24;100.00
9249;BME280;4660;41.768;26.198;2022-12-13T10:49:54;100613.16;;;8.17;100.00
9249;BME280;4660;41.768;26.198;2022-12-13T10:54:57;100593.13;;;8.21;100.00
9249;BME280;4660;41.768;26.198;2022-12-13T10:57:24;100603.47;;;8.37;100.00
9249;BME280;4660;41.768;26.198;2022-12-13T10:59:50;100598.38;;;8.22;100.00
9249;BME280;4660;41.768;26.198;2022-12-13T11:02:43;100618.88;;;8.12;100.00
9249;BME280;4660;41.768;26.198;2022-12-13T11:05:27;100623.34;;;8.23;100.00
9249;BME280;4660;41.768;26.198;2022-12-13T11:07:53;100598.59;;;7.98;100.00
9249;BME280;4660;41.768;26.198;2022-12-13T11:10:23;100616.44;;;7.77;100.00
9249;BME280;4660;41.768;26.198;2022-12-13T11:12:50;100613.66;;;8.11;100.00
9249;BME280;4660;41.768;26.198;2022-12-13T11:15:22;100615.50;;;7.99;100.00
9249;BME280;4660;41.768;26.198;2022-12-13T11:18:00;100592.94;;;7.81;100.00
9249;BME280;4660;41.768;26.198;2022-12-13T11:20:30;100618.75;;;7.82;100.00
9249;BME280;4660;41.768;26.198;2022-12-13T11:23:06;100617.19;;;7.79;100.00
9249;BME280;4660;41.768;26.198;2022-12-13T11:25:40;100579.94;;;7.76;100.00
9249;BME280;4660;41.768;26.198;2022-12-13T11:37:24;100609.16;;;8.32;100.00
9249;BME280;4660;41.768;26.198;2022-12-13T11:45:46;100531.94;;;7.84;100.00
9249;BME280;4660;41.768;26.198;2022-12-13T11:48:39;100559.16;;;8.00;100.00
9249;BME280;4660;41.768;26.198;2022-12-13T11:51:08;100611.31;;;8.17;98.54
9249;BME280;4660;41.768;26.198;2022-12-13T11:54:02;100603.28;;;8.17;94.59
9249;BME280;4660;41.768;26.198;2022-12-13T11:56:34;100517.16;;;7.69;89.98
9249;BME280;4660;41.768;26.198;2022-12-13T11:59:26;100603.41;;;8.16;89.56
9249;BME280;4660;41.768;26.198;2022-12-13T12:05:29;100472.63;;;7.68;91.89
9249;BME280;4660;41.768;26.198;2022-12-13T12:08:21;100549.03;;;8.25;91.28
9249;BME280;4660;41.768;26.198;2022-12-13T12:11:02;100607.50;;;8.73;90.62
9249;BME280;4660;41.768;26.198;2022-12-13T12:13:39;100607.91;;;8.68;92.53
9249;BME280;4660;41.768;26.198;2022-12-13T12:18:53;100592.41;;;8.19;92.25
9249;BME280;4660;41.768;26.198;2022-12-13T12:21:44;100602.69;;;8.35;94.65
9249;BME280;4660;41.768;26.198;2022-12-13T12:27:22;100597.22;;;8.78;92.52
9249;BME280;4660;41.768;26.198;2022-12-13T12:32:53;100591.50;;;8.92;90.81
9249;BME280;4660;41.768;26.198;2022-12-13T12:38:38;100588.75;;;8.73;93.15
9249;BME280;4660;41.768;26.198;2022-12-13T12:41:45;100601.75;;;8.36;96.96
9249;BME280;4660;41.768;26.198;2022-12-13T12:44:40;100580.63;;;8.42;96.17
9249;BME280;4660;41.768;26.198;2022-12-13T12:53:25;100525.19;;;8.22;92.24
9249;BME280;4660;41.768;26.198;2022-12-13T13:03:41;100600.91;;;8.56;91.16
9249;BME280;4660;41.768;26.198;2022-12-13T13:06:18;100600.97;;;8.66;88.47
9249;BME280;4660;41.768;26.198;2022-12-13T13:11:24;100587.94;;;8.82;91.37
9249;BME280;4660;41.768;26.198;2022-12-13T13:16:30;100584.25;;;8.83;90.11
9249;BME280;4660;41.768;26.198;2022-12-13T13:19:04;100589.50;;;8.64;92.10
9249;BME280;4660;41.768;26.198;2022-12-13T13:26:38;100587.25;;;8.38;94.88
9249;BME280;4660;41.768;26.198;2022-12-13T13:34:45;100605.81;;;8.19;97.96
9249;BME280;4660;41.768;26.198;2022-12-13T13:37:44;100618.78;;;8.35;98.80
9249;BME280;4660;41.768;26.198;2022-12-13T13:57:08;100618.47;;;7.85;100.00
9249;BME280;4660;41.768;26.198;2022-12-13T14:00:13;100622.41;;;7.81;100.00
9249;BME280;4660;41.768;26.198;2022-12-13T14:22:07;100724.19;;;7.58;98.57
9249;BME280;4660;41.768;26.198;2022-12-13T14:30:43;100740.38;;;7.45;99.57
9249;BME280;4660;41.768;26.198;2022-12-13T14:33:22;100747.91;;;7.40;100.00
9249;BME280;4660;41.768;26.198;2022-12-13T14:35:58;100655.88;;;6.74;98.52
9249;BME280;4660;41.768;26.198;2022-12-13T14:38:26;100735.59;;;7.15;98.62
9249;BME280;4660;41.768;26.198;2022-12-13T14:41:00;100776.84;;;7.35;98.78
9249;BME280;4660;41.768;26.198;2022-12-13T14:45:59;100785.78;;;7.12;100.00
9249;BME280;4660;41.768;26.198;2022-12-13T14:48:26;100759.50;;;7.06;100.00
9249;BME280;4660;41.768;26.198;2022-12-13T14:50:53;100766.41;;;6.86;100.00
9249;BME280;4660;41.768;26.198;2022-12-13T14:53:28;100780.19;;;7.04;100.00
9249;BME280;4660;41.768;26.198;2022-12-13T14:58:30;100758.06;;;7.13;100.00
9249;BME280;4660;41.768;26.198;2022-12-13T15:00:56;100760.25;;;7.08;100.00
9249;BME280;4660;41.768;26.198;2022-12-13T15:03:25;100741.22;;;6.88;100.00
9249;BME280;4660;41.768;26.198;2022-12-13T15:05:54;100744.09;;;6.74;100.00
9249;BME280;4660;41.768;26.198;2022-12-13T15:08:20;100757.28;;;6.88;100.00
9249;BME280;4660;41.768;26.198;2022-12-13T15:10:57;100743.19;;;6.86;100.00
9249;BME280;4660;41.768;26.198;2022-12-13T15:13:35;100738.13;;;6.71;100.00
9249;BME280;4660;41.768;26.198;2022-12-13T15:16:06;100737.25;;;6.59;100.00
9249;BME280;4660;41.768;26.198;2022-12-13T15:18:34;100748.66;;;6.61;100.00
9249;BME280;4660;41.768;26.198;2022-12-13T15:21:20;100637.16;;;6.04;100.00
9249;BME280;4660;41.768;26.198;2022-12-13T15:23:46;100734.56;;;6.59;100.00
9249;BME280;4660;41.768;26.198;2022-12-13T15:26:24;100761.50;;;6.80;100.00
9249;BME280;4660;41.768;26.198;2022-12-13T15:28:56;100762.66;;;6.65;100.00
9249;BME280;4660;41.768;26.198;2022-12-13T15:31:22;100745.81;;;6.27;100.00